• Join FlightAware (Why Join?)
  • Login
  • US Flag 
05:18AM EST


 

Airport Tracker/Info


-or-


 

Live Flight TrackerFlight Track Log ✈ N53NW ✈ 09-May-2013 ✈ KPTK - KMMU

Flight Track Log - Related Links

Times and Time Zones

All times are in EDT time to prevent confusion due to time zone crossing. See the N53NW flight status page for this flight to view local times or setup timezone preferences in your user account.

Time Position Orientation Groundspeed Altitude Reporting Facility
EDT Latitude Longitude Course Direction KTS MPH feet Rate Location/Type
07:30AM 42.6622 -83.4406 310° West 168 193 1,400  Level Cleveland Center
07:32AM 42.7044 -83.5103 310° West 173 199 4,500 1,471 Climbing Cleveland Center
07:33AM 42.7233 -83.4181 74° East 133 153 5,200 1,600 Climbing Cleveland Center
07:34AM 42.7319 -83.3194 83° East 194 223 7,700 3,250 Climbing Cleveland Center
07:35AM 42.7119 -83.1997 103° East 268 308 11,700 3,350 Climbing Cleveland Center
07:36AM 42.6719 -83.1192 124° Southeast 273 314 14,400 2,750 Climbing Cleveland Center
07:37AM 42.6281 -83.0242 122° Southeast 290 334 17,200 2,400 Climbing Cleveland Center
07:38AM 42.5783 -82.9094 120° Southeast 307 353 19,200 2,050 Climbing Cleveland Center
07:39AM 42.5283 -82.8006 122° Southeast 336 387 21,300 1,900 Climbing Cleveland Center
07:40AM 42.4744 -82.6833 122° Southeast 354 407 23,000 1,350 Climbing Cleveland Center
07:41AM 42.4203 -82.5661 122° Southeast 365 420 24,000 1,300 Climbing Cleveland Center
07:42AM 42.3703 -82.4381 118° Southeast 384 442 25,600 1,750 Climbing Cleveland Center
07:43AM 42.3619 -82.2889 94° East 379 436 27,500 2,000 Climbing Cleveland Center
07:44AM 42.3578 -82.1428 92° East 385 443 29,600 2,050 Climbing Cleveland Center
07:45AM 42.3492 -82.0019 106° East 385 443 31,600 1,700 Climbing Cleveland Center
07:46AM 42.3361 -81.8753 98° East 385 443 33,000 800 Climbing Cleveland Center
07:47AM 42.3233 -81.7206 96° East 396 456 33,200 900 Climbing Cleveland Center
07:48AM 42.3058 -81.5714 99° East 401 461 34,800 1,650 Climbing Cleveland Center
07:49AM 42.2925 -81.4225 97° East 406 467 36,500 1,600 Climbing Cleveland Center
07:50AM 42.2767 -81.2792 98° East 400 460 38,000 1,350 Climbing Cleveland Center
07:51AM 42.2608 -81.1331 98° East 388 447 39,200 1,100 Climbing Cleveland Center
07:52AM 42.2447 -80.9731 98° East 389 448 40,200 900 Climbing Cleveland Center
07:53AM 42.2306 -80.8328 98° East 389 448 41,000 400 Climbing Cleveland Center
07:54AM 42.2142 -80.6842 98° East 397 457 41,000  Level Cleveland Center
07:55AM 42.1956 -80.5300 99° East 408 470 41,000  Level Cleveland Center
07:56AM 42.1808 -80.3786 97° East 413 475 41,000  Level Cleveland Center
07:57AM 42.1617 -80.2192 99° East 413 475 41,000  Level Cleveland Center
07:58AM 42.1444 -80.0706 99° East 413 475 41,000  Level Cleveland Center
07:59AM 42.1228 -79.9114 100° East 413 475 41,000  Level Cleveland Center
08:00AM 42.1072 -79.7575 98° East 413 475 41,000  Level Cleveland Center
08:01AM 42.0914 -79.6206 99° East 413 475 41,000  Level Cleveland Center
08:02AM 42.0733 -79.4669 99° East 413 475 41,000  Level Cleveland Center
08:03AM 42.0528 -79.2997 99° East 413 475 41,000  Level Cleveland Center
08:04AM 42.0322 -79.1436 100° East 413 475 41,000  Level Cleveland Center
08:05AM 42.0158 -79.0069 99° East 413 475 41,000  Level Cleveland Center
08:06AM 41.9992 -78.8592 99° East 408 470 41,000  Level Cleveland Center
08:07AM 41.9781 -78.7033 100° East 408 470 41,000  Level Cleveland Center
08:08AM 41.9586 -78.5503 100° East 408 470 41,000 -400 Level Cleveland Center
08:09AM 41.9372 -78.3947 100° East 408 470 40,200 -1,100 Descending Cleveland Center
08:10AM 41.9175 -78.2447 100° East 408 470 38,800 -1,421 Descending Cleveland Center
08:12AM 41.8847 -78.0006 100° East 407 468 36,600 -1,451 Descending New York Center
08:13AM 41.8625 -77.8506 101° East 412 474 35,100 -793 Descending New York Center
08:14AM 41.8250 -77.7075 109° East 412 474 35,000 -50 Descending New York Center
08:15AM 41.7875 -77.5644 109° East 407 468 35,000  Level New York Center
08:16AM 41.7500 -77.4158 109° East 412 474 35,000  Level New York Center
08:17AM 41.7100 -77.2731 111° Southeast 412 474 35,000  Level New York Center
08:18AM 41.6719 -77.1275 109° East 417 480 35,000 -500 Level New York Center
08:19AM 41.6317 -76.9850 111° Southeast 417 480 34,000 -1,500 Descending New York Center
08:20AM 41.5986 -76.8569 109° East 417 480 32,000 -2,016 Descending New York Center
08:21AM 41.6047 -76.6994 87° East 389 448 29,900 -2,000 Descending New York Center
08:22AM 41.5972 -76.5544 94° East 384 442 28,000 -1,729 Descending New York Center
08:23AM 41.5586 -76.4486 116° Southeast 384 442 26,500 -1,831 Descending New York Center
08:24AM 41.5069 -76.3058 116° Southeast 384 442 24,400 -1,800 Descending New York Center
08:25AM 41.4606 -76.1828 117° Southeast 384 442 22,900 -1,537 Descending New York Center
08:26AM 41.4119 -76.0600 118° Southeast 379 436 21,300 -1,537 Descending New York Center
08:27AM 41.3694 -75.9406 115° Southeast 372 428 19,800 -1,438 Descending New York Center
08:28AM 41.3244 -75.8239 117° Southeast 367 422 18,400 -908 Descending New York Center
08:29AM 41.2792 -75.7072 117° Southeast 362 417 18,000 -821 Descending New York Center
08:30AM 41.2403 -75.5939 114° Southeast 356 410 16,800 -1,700 Descending New York Center
08:31AM 41.1994 -75.4669 113° Southeast 343 395 14,600 -2,016 Descending New York Center
08:32AM 41.1622 -75.3569 114° Southeast 338 389 12,700 -1,918 Descending New York Center
08:33AM 41.1283 -75.2583 114° Southeast 322 371 10,700 -1,966 Descending New York Center
08:34AM 41.1003 -75.1739 114° Southeast 285 328 8,800 -1,983 Descending New York Center
08:35AM 41.0706 -75.0811 113° Southeast 276 318 6,800 -1,388 Descending New York Center
08:36AM 41.0533 -74.9808 103° East 258 297 6,000 -454 Descending New York Center
08:37AM 41.0419 -74.8894 99° East 270 311 5,900 -857 Descending New York Center
08:38AM 41.0306 -74.7953 99° East 270 311 4,300 -934 Descending New York Center
08:39AM 41.0172 -74.6925 100° East 259 298 4,000 -148 Descending New York Center
08:40AM 41.0097 -74.6097 97° East 254 292 4,000 -508 Level New York Center
08:41AM 40.9981 -74.5128 99° East 254 292 3,000 -508 Descending New York Center
08:42AM 40.9897 -74.4492 100° East 209 241 3,000 -98 Level New York Center
08:43AM 40.9817 -74.3772 98° East 179 206 2,800 -551 Descending New York Center
08:43AM 40.9833 -74.3333 87° East 179 206 2,100 -500 Descending New York TRACON
08:44AM 40.9500 -74.2833 131° Southeast 181 208 2,000 -48 Descending New York TRACON
08:45AM 40.9000 -74.3167 207° Southwest 184 212 2,000 -150 Level New York TRACON
08:46AM 40.8667 -74.3500 217° Southwest 168 193 1,700 -526 Descending New York TRACON
08:47AM 40.8333 -74.3833 217° Southwest 124 143 1,000 -700 Descending New York TRACON
08:50AM 40.7993 -74.4149 157° South  Level Estimated
08:57AM 40.7993 -74.4149 157° South  Level Estimated
08:58AM 40.7993 -74.4149 157° South  Level Estimated